createdAt,value
2023-01-29T00:00:14.397Z,100139.16
2023-01-29T00:02:42.913Z,100150.94
2023-01-29T00:05:26.384Z,100147.41
2023-01-29T00:07:55.350Z,100152.91
2023-01-29T00:10:24.525Z,100154.47
2023-01-29T00:12:52.874Z,100165.50
2023-01-29T00:15:21.700Z,100170.22
2023-01-29T00:17:49.999Z,100174.53
2023-01-29T00:20:19.122Z,100170.16
2023-01-29T00:22:47.679Z,100182.31
2023-01-29T00:25:16.078Z,100173.25
2023-01-29T00:27:45.684Z,100181.88
2023-01-29T00:30:14.782Z,100184.97
2023-01-29T00:32:43.697Z,100192.81
2023-01-29T00:35:12.837Z,100197.13
2023-01-29T00:37:41.234Z,100209.69
2023-01-29T00:40:10.642Z,100206.13
2023-01-29T00:42:57.152Z,100215.47
2023-01-29T00:45:25.521Z,100225.25
2023-01-29T00:47:53.786Z,100220.84
2023-01-29T00:50:22.301Z,100236.53
2023-01-29T00:52:52.629Z,100234.56
2023-01-29T00:55:21.013Z,100243.13
2023-01-29T00:57:49.507Z,100252.91
2023-01-29T01:00:19.991Z,100257.53
2023-01-29T01:03:06.545Z,100257.84
2023-01-29T01:05:35.305Z,100268.81
2023-01-29T01:08:03.640Z,100274.22
2023-01-29T01:10:34.506Z,100282.00
2023-01-29T01:13:06.156Z,100290.19
2023-01-29T01:15:40.072Z,100298.00
2023-01-29T01:18:08.830Z,100305.81
2023-01-29T01:20:37.935Z,100314.81
2023-01-29T01:23:06.720Z,100326.94
2023-01-29T01:25:35.395Z,100323.38
2023-01-29T01:28:03.716Z,100326.44
2023-01-29T01:30:32.100Z,100333.84
2023-01-29T01:33:00.374Z,100335.72
2023-01-29T01:35:28.670Z,100330.88
2023-01-29T01:37:57.082Z,100335.50
2023-01-29T01:40:27.003Z,100343.69
2023-01-29T01:42:58.533Z,100345.13
2023-01-29T01:45:32.120Z,100346.19
2023-01-29T01:48:00.429Z,100357.13
2023-01-29T01:50:36.993Z,100355.03
2023-01-29T01:53:14.711Z,100364.75
2023-01-29T01:55:57.412Z,100366.63
2023-01-29T01:58:37.935Z,100375.59
2023-01-29T02:01:09.392Z,100375.47
2023-01-29T02:04:03.304Z,100383.63
2023-01-29T02:06:51.377Z,100389.75
2023-01-29T02:09:36.745Z,100380.16
2023-01-29T02:12:07.962Z,100395.31
2023-01-29T02:14:41.744Z,100394.34
2023-01-29T02:17:25.885Z,100393.44
2023-01-29T02:20:06.934Z,100392.00
2023-01-29T02:22:48.421Z,100385.50
2023-01-29T02:25:34.667Z,100378.53
2023-01-29T02:28:05.658Z,100389.75
2023-01-29T02:30:45.831Z,100383.97
2023-01-29T02:33:33.192Z,100385.72
2023-01-29T02:36:26.294Z,100378.88
2023-01-29T02:39:10.839Z,100380.25
2023-01-29T02:41:52.131Z,100370.13
2023-01-29T02:44:38.251Z,100370.34
2023-01-29T02:47:32.460Z,100370.06
2023-01-29T02:50:25.051Z,100367.47
2023-01-29T02:53:27.241Z,100364.09
2023-01-29T02:56:22.868Z,100364.16
2023-01-29T02:59:03.136Z,100363.97
2023-01-29T03:01:49.798Z,100365.38
2023-01-29T03:04:24.024Z,100354.41
2023-01-29T03:06:59.812Z,100351.03
2023-01-29T03:09:47.928Z,100355.53
2023-01-29T03:12:34.739Z,100337.47
2023-01-29T03:15:26.002Z,100344.25
2023-01-29T03:18:10.112Z,100339.97
2023-01-29T03:20:52.507Z,100336.88
2023-01-29T03:23:48.774Z,100327.91
2023-01-29T03:26:39.337Z,100318.50
2023-01-29T03:29:28.516Z,100308.28
2023-01-29T03:32:07.760Z,100304.09
2023-01-29T03:34:52.690Z,100310.53
2023-01-29T03:37:28.434Z,100293.19
2023-01-29T03:39:57.246Z,100290.53
2023-01-29T03:42:30.795Z,100286.72
2023-01-29T03:45:10.348Z,100274.91
2023-01-29T03:47:52.096Z,100273.91
2023-01-29T03:50:41.628Z,100266.88
2023-01-29T03:53:23.165Z,100266.50
2023-01-29T03:56:03.224Z,100264.13
2023-01-29T03:58:34.499Z,100267.75
2023-01-29T04:01:11.132Z,100259.50
2023-01-29T04:03:53.794Z,100253.22
2023-01-29T04:06:25.700Z,100245.72
2023-01-29T04:09:23.122Z,100244.22
2023-01-29T04:12:01.135Z,100237.47
2023-01-29T04:14:30.906Z,100226.09
2023-01-29T04:17:03.375Z,100217.47
2023-01-29T04:19:32.140Z,100217.94
2023-01-29T04:22:25.600Z,100211.31
2023-01-29T04:24:54.442Z,100211.53
2023-01-29T04:27:41.941Z,100200.88
2023-01-29T04:30:36.802Z,100194.56
2023-01-29T04:33:11.254Z,100183.59
2023-01-29T04:36:15.806Z,100177.13
2023-01-29T04:39:00.620Z,100185.19
2023-01-29T04:41:38.666Z,100175.44
2023-01-29T04:44:34.641Z,100166.78
2023-01-29T04:47:27.969Z,100151.44
2023-01-29T04:50:28.254Z,100146.84
2023-01-29T04:53:26.548Z,100140.78
2023-01-29T04:56:06.168Z,100149.13
2023-01-29T04:58:43.141Z,100138.94
2023-01-29T05:01:15.322Z,100126.22
2023-01-29T05:03:48.639Z,100115.53
2023-01-29T05:06:19.185Z,100119.22
2023-01-29T05:08:50.318Z,100098.16
2023-01-29T05:11:21.155Z,100095.22
2023-01-29T05:13:50.664Z,100085.44
2023-01-29T05:16:23.387Z,100082.78
2023-01-29T05:18:51.836Z,100066.63
2023-01-29T05:21:21.039Z,100074.22
2023-01-29T05:24:06.938Z,100070.78
2023-01-29T05:26:54.020Z,100061.00
2023-01-29T05:29:23.384Z,100050.72
2023-01-29T05:31:51.692Z,100039.19
2023-01-29T05:34:20.103Z,100029.25
2023-01-29T05:36:48.523Z,100028.63
2023-01-29T05:39:17.211Z,100020.38
2023-01-29T05:41:45.623Z,100022.19
2023-01-29T05:44:14.006Z,100017.97
2023-01-29T05:46:42.909Z,100003.09
2023-01-29T05:49:11.176Z,99995.31
2023-01-29T05:51:39.966Z,100000.50
2023-01-29T05:54:08.280Z,99987.13
2023-01-29T05:56:36.575Z,99992.81
2023-01-29T05:59:04.943Z,99983.47
2023-01-29T06:01:33.413Z,99963.78
2023-01-29T06:04:01.797Z,99971.97
2023-01-29T06:06:30.100Z,99960.78
2023-01-29T06:08:58.429Z,99955.00
2023-01-29T06:11:27.061Z,99935.75
2023-01-29T06:13:55.382Z,99940.66
2023-01-29T06:16:23.712Z,99939.19
2023-01-29T06:18:52.032Z,99931.09
2023-01-29T06:21:20.336Z,99921.00
2023-01-29T06:23:48.972Z,99923.28
2023-01-29T06:26:17.721Z,99899.72
2023-01-29T06:28:46.901Z,99902.81
2023-01-29T06:31:35.254Z,99897.22
2023-01-29T06:34:03.563Z,99886.59
2023-01-29T06:36:32.106Z,99886.16
2023-01-29T06:39:00.518Z,99882.38
2023-01-29T06:41:29.553Z,99880.94
2023-01-29T06:43:57.864Z,99867.72
2023-01-29T06:46:26.230Z,99868.00
2023-01-29T06:48:54.566Z,99861.16
2023-01-29T06:51:23.920Z,99853.06
2023-01-29T06:53:52.273Z,99846.97
2023-01-29T06:56:20.567Z,99838.38
2023-01-29T06:58:48.921Z,99841.28
2023-01-29T07:01:33.375Z,99852.25
2023-01-29T07:04:03.899Z,99832.69
2023-01-29T07:06:33.021Z,99829.41
2023-01-29T07:09:01.734Z,99825.84
2023-01-29T07:11:30.070Z,99819.00
2023-01-29T07:13:58.681Z,99822.56
2023-01-29T07:16:27.419Z,99825.34
2023-01-29T07:18:55.850Z,99823.59
2023-01-29T07:21:24.340Z,99818.03
2023-01-29T07:23:52.692Z,99805.59
2023-01-29T07:26:21.095Z,99814.25
2023-01-29T07:28:49.414Z,99806.63
2023-01-29T07:31:17.981Z,99802.56
2023-01-29T07:33:46.656Z,99805.38
2023-01-29T07:36:17.472Z,99803.34
2023-01-29T07:38:49.839Z,99801.81
2023-01-29T07:41:18.150Z,99794.69
2023-01-29T07:43:46.456Z,99799.78
2023-01-29T07:46:15.026Z,99789.63
2023-01-29T07:48:43.359Z,99789.91
2023-01-29T07:51:11.690Z,99789.22
2023-01-29T07:53:40.201Z,99785.97
2023-01-29T07:56:09.106Z,99782.84
2023-01-29T07:58:37.496Z,99783.63
2023-01-29T08:01:09.444Z,99777.25
2023-01-29T08:03:38.243Z,99766.66
2023-01-29T08:06:07.100Z,99771.97
2023-01-29T08:08:35.445Z,99766.66
2023-01-29T08:11:06.481Z,99760.56
2023-01-29T08:13:35.049Z,99762.38
2023-01-29T08:16:05.365Z,99756.31
2023-01-29T08:18:33.671Z,99753.50
2023-01-29T08:21:03.150Z,99749.94
2023-01-29T08:23:31.918Z,99749.16
2023-01-29T08:26:00.321Z,99761.13
2023-01-29T08:28:28.737Z,99754.75
2023-01-29T08:30:57.299Z,99754.75
2023-01-29T08:33:40.607Z,99763.16
2023-01-29T08:36:10.202Z,99754.75
2023-01-29T08:38:38.589Z,99743.78
2023-01-29T08:41:07.272Z,99747.84
2023-01-29T08:43:38.008Z,99750.38
2023-01-29T08:46:07.930Z,99741.69
2023-01-29T08:48:36.461Z,99739.69
2023-01-29T08:51:05.531Z,99749.31
2023-01-29T08:53:34.172Z,99751.31
2023-01-29T08:56:02.850Z,99755.38
2023-01-29T08:58:31.165Z,99755.88
2023-01-29T09:01:11.170Z,99761.19
2023-01-29T09:03:41.990Z,99747.69
2023-01-29T09:06:11.952Z,99754.28
2023-01-29T09:08:40.864Z,99749.66
2023-01-29T09:11:09.825Z,99760.56
2023-01-29T09:13:38.742Z,99762.31
2023-01-29T09:16:07.404Z,99762.81
2023-01-29T09:18:35.681Z,99767.34
2023-01-29T09:21:04.144Z,99767.56
2023-01-29T09:23:32.591Z,99761.88
2023-01-29T09:26:01.379Z,99763.91
2023-01-29T09:28:29.777Z,99767.69
2023-01-29T09:30:58.256Z,99767.91
2023-01-29T09:33:27.119Z,99770.13
2023-01-29T09:35:55.400Z,99772.66
2023-01-29T09:38:23.762Z,99774.84
2023-01-29T09:41:16.104Z,99779.88
2023-01-29T09:43:58.259Z,99775.72
2023-01-29T09:46:37.220Z,99779.97
2023-01-29T09:49:32.590Z,99782.97
2023-01-29T09:52:04.994Z,99780.38
2023-01-29T09:54:54.436Z,99777.03
2023-01-29T09:57:34.525Z,99776.47
2023-01-29T10:00:02.947Z,99773.38
2023-01-29T10:02:55.647Z,99775.59
2023-01-29T10:05:33.568Z,99775.03
2023-01-29T10:08:13.637Z,99784.09
2023-01-29T10:10:58.990Z,99775.13
2023-01-29T10:13:41.196Z,99780.16
2023-01-29T10:16:31.945Z,99780.84
2023-01-29T10:19:07.023Z,99786.13
2023-01-29T10:22:11.085Z,99785.53
2023-01-29T10:24:52.247Z,99796.63
2023-01-29T10:27:21.079Z,99794.97
2023-01-29T10:29:54.858Z,99797.94
2023-01-29T10:32:27.392Z,99800.63
2023-01-29T10:35:15.775Z,99802.25
2023-01-29T10:37:45.310Z,99800.13
2023-01-29T10:40:39.568Z,99809.16
2023-01-29T10:43:36.687Z,99807.53
2023-01-29T10:46:27.923Z,99804.63
2023-01-29T10:48:59.401Z,99810.09
2023-01-29T10:51:35.842Z,99820.66
2023-01-29T10:54:16.038Z,99818.53
2023-01-29T10:56:44.288Z,99813.63
2023-01-29T10:59:35.366Z,99821.09
2023-01-29T11:02:04.376Z,99829.31
2023-01-29T11:04:33.826Z,99839.88
2023-01-29T11:07:02.330Z,99841.78
2023-01-29T11:09:56.353Z,99841.66
2023-01-29T11:12:31.349Z,99837.97
2023-01-29T11:15:20.908Z,99855.78
2023-01-29T11:18:12.524Z,99858.16
2023-01-29T11:20:42.726Z,99848.91
2023-01-29T11:23:33.044Z,99855.59
2023-01-29T11:26:02.195Z,99869.84
2023-01-29T11:28:56.737Z,99869.41
2023-01-29T11:31:29.177Z,99862.19
2023-01-29T11:34:14.365Z,99873.31
2023-01-29T11:36:42.684Z,99864.84
2023-01-29T11:39:24.583Z,99868.72
2023-01-29T11:42:14.115Z,99874.91
2023-01-29T11:44:44.409Z,99878.00
2023-01-29T11:47:20.610Z,99890.53
2023-01-29T11:49:55.240Z,99882.03
2023-01-29T11:52:27.239Z,99886.38
2023-01-29T11:55:20.675Z,99893.50
2023-01-29T11:58:05.641Z,99898.59
2023-01-29T12:00:37.573Z,99905.22
2023-01-29T12:03:25.124Z,99916.97
2023-01-29T12:06:04.530Z,99926.88
2023-01-29T12:08:38.899Z,99930.69
2023-01-29T12:11:13.999Z,99938.09
2023-01-29T12:13:47.401Z,99941.66
2023-01-29T12:16:55.715Z,99948.72
2023-01-29T12:19:30.113Z,99945.13
2023-01-29T12:22:24.029Z,99949.88
2023-01-29T12:25:21.531Z,99955.72
2023-01-29T12:28:09.649Z,99960.75
2023-01-29T12:30:56.027Z,99975.56
2023-01-29T12:33:45.349Z,99973.84
2023-01-29T12:36:37.219Z,99978.44
2023-01-29T12:39:05.947Z,99991.03
2023-01-29T12:41:39.130Z,99992.84
2023-01-29T12:44:20.260Z,99996.38
2023-01-29T12:46:54.986Z,100007.41
2023-01-29T12:49:44.738Z,100005.75
2023-01-29T12:52:47.885Z,100020.78
2023-01-29T12:55:36.218Z,100012.06
2023-01-29T12:58:11.424Z,100010.31
2023-01-29T13:00:47.649Z,100024.44
2023-01-29T13:03:24.240Z,100015.13
2023-01-29T13:06:00.634Z,100020.44
2023-01-29T13:08:39.459Z,100038.88
2023-01-29T13:11:31.144Z,100044.22
2023-01-29T13:14:29.809Z,100041.56
2023-01-29T13:17:28.911Z,100041.81
2023-01-29T13:20:01.963Z,100043.47
2023-01-29T13:22:42.075Z,100049.13
2023-01-29T13:25:18.300Z,100053.22
2023-01-29T13:27:48.767Z,100059.22
2023-01-29T13:30:26.281Z,100062.44
2023-01-29T13:32:56.470Z,100058.56
2023-01-29T13:35:25.317Z,100064.19
2023-01-29T13:37:56.866Z,100071.84
2023-01-29T13:40:29.201Z,100076.72
2023-01-29T13:43:00.377Z,100078.84
2023-01-29T13:45:32.879Z,100080.91
2023-01-29T13:48:28.632Z,100082.34
2023-01-29T13:51:01.433Z,100083.69
2023-01-29T13:53:39.655Z,100092.53
2023-01-29T13:56:30.935Z,100092.66
2023-01-29T13:58:59.518Z,100104.25
2023-01-29T14:02:04.923Z,100102.03
2023-01-29T14:04:34.980Z,100108.13
2023-01-29T14:07:23.690Z,100111.00
2023-01-29T14:09:52.013Z,100120.16
2023-01-29T14:12:23.378Z,100114.75
2023-01-29T14:14:57.780Z,100117.16
2023-01-29T14:17:28.192Z,100126.69
2023-01-29T14:20:05.938Z,100129.88
2023-01-29T14:22:34.906Z,100132.31
2023-01-29T14:25:07.853Z,100132.75
2023-01-29T14:27:38.370Z,100126.88
2023-01-29T14:30:17.714Z,100133.63
2023-01-29T14:32:50.928Z,100130.19
2023-01-29T14:35:26.668Z,100135.38
2023-01-29T14:38:07.235Z,100135.91
2023-01-29T14:40:37.990Z,100134.78
2023-01-29T14:43:21.885Z,100136.09
2023-01-29T14:45:50.659Z,100133.41
2023-01-29T14:48:37.953Z,100143.75
2023-01-29T14:51:18.976Z,100142.75
2023-01-29T14:54:14.572Z,100150.34
2023-01-29T14:57:09.691Z,100154.00
2023-01-29T15:00:06.288Z,100155.66
2023-01-29T15:02:42.708Z,100157.28
2023-01-29T15:05:37.749Z,100159.72
2023-01-29T15:08:33.220Z,100160.16
2023-01-29T15:11:27.595Z,100156.56
2023-01-29T15:14:08.432Z,100161.34
2023-01-29T15:17:01.827Z,100164.88
2023-01-29T15:19:41.177Z,100167.72
2023-01-29T15:22:10.759Z,100172.50
2023-01-29T15:24:40.912Z,100173.69
2023-01-29T15:27:19.589Z,100177.34
2023-01-29T15:30:00.392Z,100178.53
2023-01-29T15:32:41.151Z,100178.63
2023-01-29T15:35:19.959Z,100177.06
2023-01-29T15:38:04.395Z,100181.91
2023-01-29T15:40:33.464Z,100182.00
2023-01-29T15:43:02.038Z,100172.59
2023-01-29T15:45:35.090Z,100182.88
2023-01-29T15:48:15.146Z,100177.78
2023-01-29T15:50:44.757Z,100173.84
2023-01-29T15:53:21.294Z,100179.81
2023-01-29T15:55:52.513Z,100176.28
2023-01-29T15:58:29.203Z,100175.50
2023-01-29T16:01:00.656Z,100175.94
2023-01-29T16:03:33.796Z,100169.63
2023-01-29T16:06:03.455Z,100182.66
2023-01-29T16:08:31.936Z,100174.38
2023-01-29T16:11:04.708Z,100172.81
2023-01-29T16:13:36.997Z,100168.50
2023-01-29T16:16:18.027Z,100171.28
2023-01-29T16:18:59.488Z,100164.19
2023-01-29T16:21:28.907Z,100162.97
2023-01-29T16:24:00.735Z,100166.50
2023-01-29T16:26:36.303Z,100157.78
2023-01-29T16:29:13.265Z,100161.69
2023-01-29T16:31:43.769Z,100158.47
2023-01-29T16:34:28.936Z,100150.19
2023-01-29T16:36:58.759Z,100149.41
2023-01-29T16:39:31.663Z,100151.41
2023-01-29T16:42:13.240Z,100149.06
2023-01-29T16:44:46.509Z,100149.16
2023-01-29T16:47:21.934Z,100155.88
2023-01-29T16:49:52.806Z,100159.53
2023-01-29T16:52:21.273Z,100152.09
2023-01-29T16:54:49.770Z,100151.75
2023-01-29T16:57:26.022Z,100145.09
2023-01-29T17:00:00.574Z,100155.03
2023-01-29T17:02:39.700Z,100149.59
2023-01-29T17:05:11.094Z,100147.66
2023-01-29T17:07:39.769Z,100156.03
2023-01-29T17:10:08.960Z,100143.06
2023-01-29T17:12:38.877Z,100140.81
2023-01-29T17:15:32.360Z,100135.13
2023-01-29T17:18:01.257Z,100139.94
2023-01-29T17:20:31.200Z,100141.59
2023-01-29T17:22:59.838Z,100138.91
2023-01-29T17:25:29.500Z,100136.66
2023-01-29T17:28:00.866Z,100126.91
2023-01-29T17:30:33.196Z,100129.38
2023-01-29T17:33:03.805Z,100129.88
2023-01-29T17:35:32.101Z,100125.28
2023-01-29T17:38:00.385Z,100132.50
2023-01-29T17:40:40.719Z,100126.34
2023-01-29T17:43:12.549Z,100136.28
2023-01-29T17:45:41.449Z,100130.00
2023-01-29T17:48:30.712Z,100137.16
2023-01-29T17:51:03.897Z,100136.81
2023-01-29T17:53:45.379Z,100134.91
2023-01-29T17:56:20.291Z,100141.28
2023-01-29T17:58:48.716Z,100137.81
2023-01-29T18:01:17.313Z,100136.59
2023-01-29T18:03:45.765Z,100141.75
2023-01-29T18:06:28.092Z,100135.97
2023-01-29T18:08:57.369Z,100137.53
2023-01-29T18:11:26.255Z,100135.59
2023-01-29T18:13:54.909Z,100138.41
2023-01-29T18:16:23.934Z,100127.88
2023-01-29T18:18:53.214Z,100118.47
2023-01-29T18:21:21.593Z,100120.50
2023-01-29T18:23:49.883Z,100113.50
2023-01-29T18:26:18.672Z,100112.00
2023-01-29T18:28:47.062Z,100112.84
2023-01-29T18:31:15.474Z,100114.88
2023-01-29T18:33:43.792Z,100107.09
2023-01-29T18:36:12.092Z,100100.84
2023-01-29T18:38:41.085Z,100087.53
2023-01-29T18:41:13.956Z,100093.53
2023-01-29T18:43:43.927Z,100088.88
2023-01-29T18:46:12.370Z,100092.84
2023-01-29T18:48:42.601Z,100084.22
2023-01-29T18:51:11.574Z,100080.34
2023-01-29T18:53:39.984Z,100073.69
2023-01-29T18:56:08.762Z,100085.91
2023-01-29T18:58:37.906Z,100082.38
2023-01-29T19:01:10.332Z,100082.38
2023-01-29T19:03:40.099Z,100080.81
2023-01-29T19:06:11.113Z,100080.81
2023-01-29T19:08:40.657Z,100082.03
2023-01-29T19:11:09.909Z,100076.88
2023-01-29T19:13:39.071Z,100073.34
2023-01-29T19:16:11.735Z,100076.50
2023-01-29T19:18:40.230Z,100077.72
2023-01-29T19:21:11.904Z,100073.75
2023-01-29T19:23:41.433Z,100073.41
2023-01-29T19:26:10.882Z,100074.19
2023-01-29T19:28:39.212Z,100075.38
2023-01-29T19:31:07.705Z,100073.03
2023-01-29T19:33:36.118Z,100068.31
2023-01-29T19:36:04.488Z,100064.34
2023-01-29T19:38:34.600Z,100065.91
2023-01-29T19:41:03.044Z,100062.72
2023-01-29T19:43:32.731Z,100060.75
2023-01-29T19:46:02.688Z,100061.94
2023-01-29T19:48:31.050Z,100064.72
2023-01-29T19:51:01.815Z,100054.88
2023-01-29T19:53:30.587Z,100056.16
2023-01-29T19:56:05.368Z,100055.44
2023-01-29T19:58:34.735Z,100050.41
2023-01-29T20:01:09.369Z,100048.09
2023-01-29T20:03:38.961Z,100052.53
2023-01-29T20:06:08.058Z,100045.16
2023-01-29T20:08:36.833Z,100040.13
2023-01-29T20:11:06.471Z,100052.00
2023-01-29T20:13:35.357Z,100048.50
2023-01-29T20:16:06.337Z,100058.38
2023-01-29T20:18:34.833Z,100046.22
2023-01-29T20:21:09.143Z,100052.13
2023-01-29T20:23:38.822Z,100057.66
2023-01-29T20:26:15.440Z,100056.09
2023-01-29T20:28:44.321Z,100048.59
2023-01-29T20:31:12.760Z,100037.59
2023-01-29T20:33:41.559Z,100037.59
2023-01-29T20:36:12.198Z,100047.06
2023-01-29T20:38:40.803Z,100041.53
2023-01-29T20:41:17.439Z,100049.38
2023-01-29T20:43:46.533Z,100041.13
2023-01-29T20:46:14.988Z,100043.09
2023-01-29T20:48:43.778Z,100047.81
2023-01-29T20:51:18.033Z,100047.81
2023-01-29T20:53:48.832Z,100052.91
2023-01-29T20:56:18.142Z,100041.91
2023-01-29T20:58:49.051Z,100041.13
2023-01-29T21:01:19.966Z,100034.41
2023-01-29T21:03:49.242Z,100034.41
2023-01-29T21:06:17.564Z,100033.66
2023-01-29T21:08:45.930Z,100029.75
2023-01-29T21:11:14.353Z,100022.28
2023-01-29T21:13:43.546Z,100022.28
2023-01-29T21:16:12.270Z,100020.28
2023-01-29T21:18:41.025Z,100022.28
2023-01-29T21:21:09.410Z,100018.75
2023-01-29T21:23:37.731Z,100026.63
2023-01-29T21:26:07.764Z,100020.78
2023-01-29T21:28:36.474Z,100019.22
2023-01-29T21:31:11.057Z,100022.38
2023-01-29T21:33:39.870Z,100024.78
2023-01-29T21:36:09.376Z,100027.16
2023-01-29T21:38:38.089Z,100038.59
2023-01-29T21:41:10.528Z,100033.88
2023-01-29T21:43:39.117Z,100034.28
2023-01-29T21:46:14.806Z,100037.03
2023-01-29T21:48:43.246Z,100036.28
2023-01-29T21:51:11.811Z,100043.41
2023-01-29T21:53:40.109Z,100047.00
2023-01-29T21:56:08.580Z,100046.22
2023-01-29T21:58:36.928Z,100048.97
2023-01-29T22:01:36.559Z,100048.97
2023-01-29T22:03:53.571Z,100064.34
2023-01-29T22:06:22.082Z,100058.09
2023-01-29T22:08:51.316Z,100060.13
2023-01-29T22:11:19.812Z,100065.31
2023-01-29T22:13:48.099Z,100062.59
2023-01-29T22:16:16.411Z,100061.41
2023-01-29T22:18:44.710Z,100066.19
2023-01-29T22:21:13.048Z,100077.25
2023-01-29T22:23:41.454Z,100078.06
2023-01-29T22:26:10.756Z,100086.72
2023-01-29T22:28:39.122Z,100081.28
2023-01-29T22:31:07.493Z,100091.13
2023-01-29T22:33:36.248Z,100093.50
2023-01-29T22:36:05.572Z,100085.69
2023-01-29T22:38:33.886Z,100093.56
2023-01-29T22:41:02.628Z,100101.41
2023-01-29T22:43:31.184Z,100102.25
2023-01-29T22:45:59.559Z,100109.34
2023-01-29T22:48:29.518Z,100109.75
2023-01-29T22:51:10.486Z,100117.63
2023-01-29T22:53:44.984Z,100115.34
2023-01-29T22:56:13.530Z,100118.91
2023-01-29T22:58:42.137Z,100129.16
2023-01-29T23:01:10.532Z,100127.63
2023-01-29T23:03:38.844Z,100139.41
2023-01-29T23:06:07.176Z,100140.66
2023-01-29T23:08:35.602Z,100145.41
2023-01-29T23:11:19.518Z,100145.44
2023-01-29T23:13:55.844Z,100152.94
2023-01-29T23:16:28.174Z,100147.47
2023-01-29T23:18:57.732Z,100149.06
2023-01-29T23:21:26.595Z,100149.84
2023-01-29T23:23:57.887Z,100158.91
2023-01-29T23:26:45.056Z,100158.91
2023-01-29T23:29:13.846Z,100160.84
2023-01-29T23:31:42.193Z,100165.16
2023-01-29T23:34:10.553Z,100165.16
2023-01-29T23:36:38.879Z,100175.38
2023-01-29T23:39:07.451Z,100187.16
2023-01-29T23:41:36.087Z,100174.59
2023-01-29T23:44:04.651Z,100181.28
2023-01-29T23:46:33.305Z,100181.66
2023-01-29T23:49:01.864Z,100180.53
2023-01-29T23:51:30.377Z,100187.19
2023-01-29T23:53:58.712Z,100186.03
2023-01-29T23:56:27.086Z,100200.56
2023-01-29T23:58:59.167Z,100199.78
